sensor_id;sensor_type;location;lat;lon;timestamp;pressure;altitude;pressure_sealevel;temperature;humidity
10310;BME280;5200;43.236;27.986;2023-08-12T00:00:28;100356.50;;;20.44;80.50
10310;BME280;5200;43.236;27.986;2023-08-12T00:02:56;100351.91;;;20.38;80.80
10310;BME280;5200;43.236;27.986;2023-08-12T00:05:23;100337.56;;;20.17;80.98
10310;BME280;5200;43.236;27.986;2023-08-12T00:07:51;100328.25;;;20.06;82.09
10310;BME280;5200;43.236;27.986;2023-08-12T00:10:18;100349.91;;;20.18;83.28
10310;BME280;5200;43.236;27.986;2023-08-12T00:12:45;100354.94;;;20.06;83.91
10310;BME280;5200;43.236;27.986;2023-08-12T00:15:12;100349.03;;;19.90;84.83
10310;BME280;5200;43.236;27.986;2023-08-12T00:17:39;100343.56;;;19.76;85.46
10310;BME280;5200;43.236;27.986;2023-08-12T00:20:09;100327.00;;;19.66;86.16
10310;BME280;5200;43.236;27.986;2023-08-12T00:22:38;100355.44;;;19.74;86.47
10310;BME280;5200;43.236;27.986;2023-08-12T00:25:06;100352.31;;;19.70;86.81
10310;BME280;5200;43.236;27.986;2023-08-12T00:27:33;100344.28;;;19.70;86.42
10310;BME280;5200;43.236;27.986;2023-08-12T00:30:00;100345.56;;;19.74;85.56
10310;BME280;5200;43.236;27.986;2023-08-12T00:32:27;100324.44;;;19.58;85.26
10310;BME280;5200;43.236;27.986;2023-08-12T00:34:54;100350.16;;;19.80;85.19
10310;BME280;5200;43.236;27.986;2023-08-12T00:37:22;100319.00;;;19.66;85.35
10310;BME280;5200;43.236;27.986;2023-08-12T00:39:49;100343.81;;;19.81;84.63
10310;BME280;5200;43.236;27.986;2023-08-12T00:42:16;100346.47;;;19.81;84.77
10310;BME280;5200;43.236;27.986;2023-08-12T00:44:44;100349.78;;;19.83;84.81
10310;BME280;5200;43.236;27.986;2023-08-12T00:47:11;100359.00;;;19.81;84.99
10310;BME280;5200;43.236;27.986;2023-08-12T00:49:39;100357.53;;;19.78;84.83
10310;BME280;5200;43.236;27.986;2023-08-12T00:52:06;100355.22;;;19.75;84.88
10310;BME280;5200;43.236;27.986;2023-08-12T00:54:35;100327.66;;;19.53;85.46
10310;BME280;5200;43.236;27.986;2023-08-12T00:57:02;100349.63;;;19.70;85.21
10310;BME280;5200;43.236;27.986;2023-08-12T00:59:29;100326.84;;;19.53;85.01
10310;BME280;5200;43.236;27.986;2023-08-12T01:01:56;100349.63;;;19.70;84.74
10310;BME280;5200;43.236;27.986;2023-08-12T01:04:23;100325.16;;;19.52;84.92
10310;BME280;5200;43.236;27.986;2023-08-12T01:06:50;100352.00;;;19.65;84.99
10310;BME280;5200;43.236;27.986;2023-08-12T01:09:17;100347.06;;;19.62;85.43
10310;BME280;5200;43.236;27.986;2023-08-12T01:11:50;100328.78;;;19.44;85.27
10310;BME280;5200;43.236;27.986;2023-08-12T01:14:23;100346.59;;;19.58;85.55
10310;BME280;5200;43.236;27.986;2023-08-12T01:16:56;100355.63;;;19.57;85.87
10310;BME280;5200;43.236;27.986;2023-08-12T01:19:30;100350.69;;;19.54;86.02
10310;BME280;5200;43.236;27.986;2023-08-12T01:22:01;100329.59;;;19.44;86.57
10310;BME280;5200;43.236;27.986;2023-08-12T01:24:35;100335.03;;;19.51;86.96
10310;BME280;5200;43.236;27.986;2023-08-12T01:27:04;100334.13;;;19.44;87.09
10310;BME280;5200;43.236;27.986;2023-08-12T01:29:31;100335.41;;;19.48;87.15
10310;BME280;5200;43.236;27.986;2023-08-12T01:32:06;100312.44;;;19.32;87.41
10310;BME280;5200;43.236;27.986;2023-08-12T01:34:40;100347.28;;;19.46;87.63
10310;BME280;5200;43.236;27.986;2023-08-12T01:37:11;100355.56;;;19.51;87.64
10310;BME280;5200;43.236;27.986;2023-08-12T01:39:43;100325.78;;;19.32;87.71
10310;BME280;5200;43.236;27.986;2023-08-12T01:42:11;100322.13;;;19.33;88.07
10310;BME280;5200;43.236;27.986;2023-08-12T01:44:39;100302.19;;;19.14;88.71
10310;BME280;5200;43.236;27.986;2023-08-12T01:47:09;100344.16;;;19.42;89.70
10310;BME280;5200;43.236;27.986;2023-08-12T01:49:35;100350.44;;;19.34;90.50
10310;BME280;5200;43.236;27.986;2023-08-12T01:52:03;100351.47;;;19.33;91.47
10310;BME280;5200;43.236;27.986;2023-08-12T01:54:30;100343.91;;;19.22;92.11
10310;BME280;5200;43.236;27.986;2023-08-12T01:57:01;100353.81;;;19.28;93.08
10310;BME280;5200;43.236;27.986;2023-08-12T01:59:31;100356.69;;;19.27;93.51
10310;BME280;5200;43.236;27.986;2023-08-12T02:01:58;100349.91;;;19.24;94.23
10310;BME280;5200;43.236;27.986;2023-08-12T02:04:26;100317.84;;;19.03;94.82
10310;BME280;5200;43.236;27.986;2023-08-12T02:06:53;100357.00;;;19.17;95.41
10310;BME280;5200;43.236;27.986;2023-08-12T02:09:20;100351.34;;;19.12;96.41
10310;BME280;5200;43.236;27.986;2023-08-12T02:11:47;100334.28;;;18.91;96.89
10310;BME280;5200;43.236;27.986;2023-08-12T02:14:15;100357.63;;;19.04;97.68
10310;BME280;5200;43.236;27.986;2023-08-12T02:16:42;100349.91;;;18.94;98.43
10310;BME280;5200;43.236;27.986;2023-08-12T02:19:09;100368.84;;;18.99;99.08
10310;BME280;5200;43.236;27.986;2023-08-12T02:21:36;100332.44;;;18.77;99.36
10310;BME280;5200;43.236;27.986;2023-08-12T02:24:03;100364.97;;;18.87;99.83
10310;BME280;5200;43.236;27.986;2023-08-12T02:26:30;100383.09;;;18.92;100.00
10310;BME280;5200;43.236;27.986;2023-08-12T02:28:57;100362.41;;;18.79;100.00
10310;BME280;5200;43.236;27.986;2023-08-12T02:31:26;100377.66;;;18.85;100.00
10310;BME280;5200;43.236;27.986;2023-08-12T02:33:53;100376.06;;;18.76;100.00
10310;BME280;5200;43.236;27.986;2023-08-12T02:36:20;100378.59;;;18.77;100.00
10310;BME280;5200;43.236;27.986;2023-08-12T02:38:47;100352.31;;;18.51;100.00
10310;BME280;5200;43.236;27.986;2023-08-12T02:41:15;100395.47;;;18.70;100.00
10310;BME280;5200;43.236;27.986;2023-08-12T02:43:42;100386.00;;;18.67;100.00
10310;BME280;5200;43.236;27.986;2023-08-12T02:46:09;100391.50;;;18.66;100.00
10310;BME280;5200;43.236;27.986;2023-08-12T02:48:37;100356.34;;;18.47;100.00
10310;BME280;5200;43.236;27.986;2023-08-12T02:51:04;100355.41;;;18.40;100.00
10310;BME280;5200;43.236;27.986;2023-08-12T02:53:31;100389.00;;;18.64;100.00
10310;BME280;5200;43.236;27.986;2023-08-12T02:55:58;100370.31;;;18.49;100.00
10310;BME280;5200;43.236;27.986;2023-08-12T02:58:26;100393.34;;;18.65;100.00
10310;BME280;5200;43.236;27.986;2023-08-12T03:00:54;100360.66;;;18.48;100.00
10310;BME280;5200;43.236;27.986;2023-08-12T03:03:21;100367.66;;;18.49;100.00
10310;BME280;5200;43.236;27.986;2023-08-12T03:05:50;100390.19;;;18.62;100.00
10310;BME280;5200;43.236;27.986;2023-08-12T03:08:17;100392.47;;;18.65;100.00
10310;BME280;5200;43.236;27.986;2023-08-12T03:10:44;100394.16;;;18.66;100.00
10310;BME280;5200;43.236;27.986;2023-08-12T03:13:12;100392.13;;;18.68;100.00
10310;BME280;5200;43.236;27.986;2023-08-12T03:15:39;100356.63;;;18.52;100.00
10310;BME280;5200;43.236;27.986;2023-08-12T03:18:07;100383.38;;;18.82;100.00
10310;BME280;5200;43.236;27.986;2023-08-12T03:20:34;100364.72;;;18.82;100.00
10310;BME280;5200;43.236;27.986;2023-08-12T03:23:03;100391.28;;;19.20;100.00
10310;BME280;5200;43.236;27.986;2023-08-12T03:25:30;100375.72;;;19.38;99.39
10310;BME280;5200;43.236;27.986;2023-08-12T03:27:57;100385.38;;;19.69;97.37
10310;BME280;5200;43.236;27.986;2023-08-12T03:30:24;100380.31;;;19.96;95.05
10310;BME280;5200;43.236;27.986;2023-08-12T03:32:51;100381.19;;;20.24;92.96
10310;BME280;5200;43.236;27.986;2023-08-12T03:35:18;100371.25;;;20.40;90.25
10310;BME280;5200;43.236;27.986;2023-08-12T03:37:46;100392.53;;;20.76;89.04
10310;BME280;5200;43.236;27.986;2023-08-12T03:40:14;100371.25;;;20.89;86.59
10310;BME280;5200;43.236;27.986;2023-08-12T03:42:41;100383.78;;;21.24;84.91
10310;BME280;5200;43.236;27.986;2023-08-12T03:45:08;100394.22;;;21.53;82.94
10310;BME280;5200;43.236;27.986;2023-08-12T03:47:35;100366.66;;;21.60;80.89
10310;BME280;5200;43.236;27.986;2023-08-12T03:50:03;100379.94;;;21.94;79.94
10310;BME280;5200;43.236;27.986;2023-08-12T03:52:30;100393.16;;;22.16;78.15
10310;BME280;5200;43.236;27.986;2023-08-12T03:54:57;100398.56;;;22.29;77.32
10310;BME280;5200;43.236;27.986;2023-08-12T03:57:25;100389.91;;;22.41;76.11
10310;BME280;5200;43.236;27.986;2023-08-12T03:59:52;100394.84;;;22.57;75.80
10310;BME280;5200;43.236;27.986;2023-08-12T04:02:19;100394.22;;;22.82;74.73
10310;BME280;5200;43.236;27.986;2023-08-12T04:04:46;100388.22;;;22.93;73.54
10310;BME280;5200;43.236;27.986;2023-08-12T04:07:12;100403.84;;;23.29;72.02
10310;BME280;5200;43.236;27.986;2023-08-12T04:09:39;100378.44;;;23.32;70.48
10310;BME280;5200;43.236;27.986;2023-08-12T04:12:06;100401.06;;;23.56;70.07
10310;BME280;5200;43.236;27.986;2023-08-12T04:14:34;100401.22;;;23.68;69.54
10310;BME280;5200;43.236;27.986;2023-08-12T04:17:01;100405.31;;;23.77;68.94
10310;BME280;5200;43.236;27.986;2023-08-12T04:19:28;100410.28;;;23.73;68.57
10310;BME280;5200;43.236;27.986;2023-08-12T04:21:55;100388.81;;;23.67;68.65
10310;BME280;5200;43.236;27.986;2023-08-12T04:24:22;100391.25;;;23.81;67.21
10310;BME280;5200;43.236;27.986;2023-08-12T04:26:49;100415.88;;;24.10;66.88
10310;BME280;5200;43.236;27.986;2023-08-12T04:29:16;100408.38;;;24.19;65.63
10310;BME280;5200;43.236;27.986;2023-08-12T04:31:44;100383.81;;;24.15;65.80
10310;BME280;5200;43.236;27.986;2023-08-12T04:34:11;100401.16;;;24.44;64.57
10310;BME280;5200;43.236;27.986;2023-08-12T04:36:38;100409.81;;;24.53;63.69
10310;BME280;5200;43.236;27.986;2023-08-12T04:39:05;100398.72;;;24.36;64.32
10310;BME280;5200;43.236;27.986;2023-08-12T04:41:32;100421.84;;;24.51;63.48
10310;BME280;5200;43.236;27.986;2023-08-12T04:43:59;100419.94;;;24.58;64.11
10310;BME280;5200;43.236;27.986;2023-08-12T04:46:26;100421.31;;;24.85;63.16
10310;BME280;5200;43.236;27.986;2023-08-12T04:48:54;100425.59;;;25.11;61.43
10310;BME280;5200;43.236;27.986;2023-08-12T04:51:21;100400.91;;;25.21;60.26
10310;BME280;5200;43.236;27.986;2023-08-12T04:53:48;100424.72;;;25.73;58.93
10310;BME280;5200;43.236;27.986;2023-08-12T04:56:15;100429.09;;;26.04;57.32
10310;BME280;5200;43.236;27.986;2023-08-12T04:58:42;100412.22;;;26.09;55.48
10310;BME280;5200;43.236;27.986;2023-08-12T05:01:09;100417.84;;;26.07;55.10
10310;BME280;5200;43.236;27.986;2023-08-12T05:03:37;100419.91;;;25.93;55.70
10310;BME280;5200;43.236;27.986;2023-08-12T05:06:05;100432.69;;;25.98;56.10
10310;BME280;5200;43.236;27.986;2023-08-12T05:08:32;100428.03;;;26.05;55.40
10310;BME280;5200;43.236;27.986;2023-08-12T05:10:59;100444.69;;;26.02;55.64
10310;BME280;5200;43.236;27.986;2023-08-12T05:13:26;100433.44;;;26.05;53.71
10310;BME280;5200;43.236;27.986;2023-08-12T05:15:54;100430.38;;;26.02;54.84
10310;BME280;5200;43.236;27.986;2023-08-12T05:18:21;100432.34;;;25.94;55.41
10310;BME280;5200;43.236;27.986;2023-08-12T05:20:51;100413.78;;;25.86;55.18
10310;BME280;5200;43.236;27.986;2023-08-12T05:23:20;100430.84;;;26.10;53.82
10310;BME280;5200;43.236;27.986;2023-08-12T05:25:47;100384.66;;;25.95;52.68
10310;BME280;5200;43.236;27.986;2023-08-12T05:28:14;100429.41;;;26.38;52.31
10310;BME280;5200;43.236;27.986;2023-08-12T05:30:41;100435.41;;;26.40;52.88
10310;BME280;5200;43.236;27.986;2023-08-12T05:33:08;100429.16;;;26.70;52.62
10310;BME280;5200;43.236;27.986;2023-08-12T05:35:35;100434.88;;;26.97;50.30
10310;BME280;5200;43.236;27.986;2023-08-12T05:38:02;100427.13;;;27.12;50.23
10310;BME280;5200;43.236;27.986;2023-08-12T05:40:31;100428.31;;;27.16;49.21
10310;BME280;5200;43.236;27.986;2023-08-12T05:42:58;100431.97;;;27.22;49.10
10310;BME280;5200;43.236;27.986;2023-08-12T05:45:27;100427.84;;;27.31;49.01
10310;BME280;5200;43.236;27.986;2023-08-12T05:47:57;100440.97;;;27.39;47.57
10310;BME280;5200;43.236;27.986;2023-08-12T05:50:24;100429.34;;;27.15;48.73
10310;BME280;5200;43.236;27.986;2023-08-12T05:52:51;100435.19;;;27.48;49.71
10310;BME280;5200;43.236;27.986;2023-08-12T05:55:18;100431.34;;;27.72;47.11
10310;BME280;5200;43.236;27.986;2023-08-12T05:57:46;100419.59;;;27.78;45.69
10310;BME280;5200;43.236;27.986;2023-08-12T06:00:14;100430.31;;;27.73;45.77
10310;BME280;5200;43.236;27.986;2023-08-12T06:02:40;100435.81;;;27.78;46.03
10310;BME280;5200;43.236;27.986;2023-08-12T06:05:10;100435.59;;;28.09;46.36
10310;BME280;5200;43.236;27.986;2023-08-12T06:07:37;100415.28;;;28.23;44.55
10310;BME280;5200;43.236;27.986;2023-08-12T06:10:05;100430.38;;;28.53;44.60
10310;BME280;5200;43.236;27.986;2023-08-12T06:12:32;100436.47;;;28.77;43.56
10310;BME280;5200;43.236;27.986;2023-08-12T06:15:01;100410.72;;;28.74;42.98
10310;BME280;5200;43.236;27.986;2023-08-12T06:17:28;100434.88;;;28.98;42.41
10310;BME280;5200;43.236;27.986;2023-08-12T06:19:55;100431.22;;;29.26;42.45
10310;BME280;5200;43.236;27.986;2023-08-12T06:22:22;100428.59;;;29.31;40.96
10310;BME280;5200;43.236;27.986;2023-08-12T06:24:49;100416.19;;;29.35;41.50
10310;BME280;5200;43.236;27.986;2023-08-12T06:27:15;100415.78;;;29.48;41.60
10310;BME280;5200;43.236;27.986;2023-08-12T06:29:44;100427.50;;;29.54;40.55
10310;BME280;5200;43.236;27.986;2023-08-12T06:32:13;100423.84;;;29.87;40.53
10310;BME280;5200;43.236;27.986;2023-08-12T06:34:40;100424.13;;;30.18;39.11
10310;BME280;5200;43.236;27.986;2023-08-12T06:37:07;100418.38;;;30.14;38.63
10310;BME280;5200;43.236;27.986;2023-08-12T06:39:34;100411.53;;;30.07;38.68
10310;BME280;5200;43.236;27.986;2023-08-12T06:42:01;100426.66;;;29.98;39.67
10310;BME280;5200;43.236;27.986;2023-08-12T06:44:28;100419.44;;;30.08;39.01
10310;BME280;5200;43.236;27.986;2023-08-12T06:46:55;100411.66;;;29.90;38.42
10310;BME280;5200;43.236;27.986;2023-08-12T06:49:24;100425.94;;;29.80;39.23
10310;BME280;5200;43.236;27.986;2023-08-12T06:51:51;100413.06;;;29.98;39.22
10310;BME280;5200;43.236;27.986;2023-08-12T06:54:18;100423.00;;;30.41;39.81
10310;BME280;5200;43.236;27.986;2023-08-12T06:56:45;100418.59;;;30.72;40.78
10310;BME280;5200;43.236;27.986;2023-08-12T06:59:12;100429.09;;;30.96;40.97
10310;BME280;5200;43.236;27.986;2023-08-12T07:01:39;100416.34;;;31.02;40.50
10310;BME280;5200;43.236;27.986;2023-08-12T07:04:05;100416.66;;;31.00;40.52
10310;BME280;5200;43.236;27.986;2023-08-12T07:06:34;100407.81;;;30.83;40.15
10310;BME280;5200;43.236;27.986;2023-08-12T07:09:01;100408.88;;;30.76;40.87
10310;BME280;5200;43.236;27.986;2023-08-12T07:11:28;100408.09;;;30.81;40.70
10310;BME280;5200;43.236;27.986;2023-08-12T07:13:55;100415.66;;;30.74;41.32
10310;BME280;5200;43.236;27.986;2023-08-12T07:16:22;100402.28;;;30.67;41.24
10310;BME280;5200;43.236;27.986;2023-08-12T07:18:49;100404.00;;;30.79;41.04
10310;BME280;5200;43.236;27.986;2023-08-12T07:21:16;100417.44;;;30.95;40.03
10310;BME280;5200;43.236;27.986;2023-08-12T07:23:44;100414.03;;;30.83;41.53
10310;BME280;5200;43.236;27.986;2023-08-12T07:26:11;100399.06;;;30.75;41.36
10310;BME280;5200;43.236;27.986;2023-08-12T07:28:38;100406.78;;;30.51;41.27
10310;BME280;5200;43.236;27.986;2023-08-12T07:31:05;100395.63;;;30.48;41.51
10310;BME280;5200;43.236;27.986;2023-08-12T07:33:32;100412.00;;;30.58;41.70
10310;BME280;5200;43.236;27.986;2023-08-12T07:35:59;100410.28;;;30.47;42.01
10310;BME280;5200;43.236;27.986;2023-08-12T07:38:26;100413.69;;;30.32;42.24
10310;BME280;5200;43.236;27.986;2023-08-12T07:40:54;100406.44;;;30.43;42.61
10310;BME280;5200;43.236;27.986;2023-08-12T07:43:22;100397.84;;;30.51;41.99
10310;BME280;5200;43.236;27.986;2023-08-12T07:45:51;100392.38;;;30.46;41.47
10310;BME280;5200;43.236;27.986;2023-08-12T07:48:18;100393.97;;;30.42;41.96
10310;BME280;5200;43.236;27.986;2023-08-12T07:50:45;100392.81;;;30.32;42.08
10310;BME280;5200;43.236;27.986;2023-08-12T07:53:14;100390.69;;;29.80;43.67
10310;BME280;5200;43.236;27.986;2023-08-12T07:55:43;100392.00;;;29.56;44.13
10310;BME280;5200;43.236;27.986;2023-08-12T07:58:11;100397.47;;;29.61;43.92
10310;BME280;5200;43.236;27.986;2023-08-12T08:00:41;100394.16;;;29.54;43.74
10310;BME280;5200;43.236;27.986;2023-08-12T08:03:11;100403.22;;;29.64;44.27
10310;BME280;5200;43.236;27.986;2023-08-12T08:05:40;100403.41;;;29.58;44.01
10310;BME280;5200;43.236;27.986;2023-08-12T08:08:07;100398.88;;;29.41;43.45
10310;BME280;5200;43.236;27.986;2023-08-12T08:10:35;100372.44;;;28.87;44.13
10310;BME280;5200;43.236;27.986;2023-08-12T08:13:02;100401.00;;;28.95;44.43
10310;BME280;5200;43.236;27.986;2023-08-12T08:15:32;100393.41;;;28.41;44.57
10310;BME280;5200;43.236;27.986;2023-08-12T08:18:03;100397.06;;;28.35;46.67
10310;BME280;5200;43.236;27.986;2023-08-12T08:20:30;100390.19;;;28.44;47.16
10310;BME280;5200;43.236;27.986;2023-08-12T08:22:57;100401.53;;;28.58;45.60
10310;BME280;5200;43.236;27.986;2023-08-12T08:25:24;100406.94;;;28.58;48.21
10310;BME280;5200;43.236;27.986;2023-08-12T08:27:51;100409.88;;;28.74;47.81
10310;BME280;5200;43.236;27.986;2023-08-12T08:30:18;100404.97;;;28.71;46.98
10310;BME280;5200;43.236;27.986;2023-08-12T08:32:47;100404.66;;;28.67;47.78
10310;BME280;5200;43.236;27.986;2023-08-12T08:35:17;100405.72;;;28.49;48.72
10310;BME280;5200;43.236;27.986;2023-08-12T08:37:44;100383.31;;;28.37;49.66
10310;BME280;5200;43.236;27.986;2023-08-12T08:40:11;100416.78;;;28.48;49.84
10310;BME280;5200;43.236;27.986;2023-08-12T08:42:39;100400.00;;;28.17;50.79
10310;BME280;5200;43.236;27.986;2023-08-12T08:45:12;100416.38;;;28.39;53.40
10310;BME280;5200;43.236;27.986;2023-08-12T08:47:39;100406.59;;;28.21;50.01
10310;BME280;5200;43.236;27.986;2023-08-12T08:50:09;100404.25;;;27.96;50.20
10310;BME280;5200;43.236;27.986;2023-08-12T08:52:37;100409.78;;;27.89;52.60
10310;BME280;5200;43.236;27.986;2023-08-12T08:55:05;100406.22;;;28.00;53.23
10310;BME280;5200;43.236;27.986;2023-08-12T08:57:32;100411.91;;;28.16;53.69
10310;BME280;5200;43.236;27.986;2023-08-12T08:59:59;100405.34;;;28.12;53.72
10310;BME280;5200;43.236;27.986;2023-08-12T09:02:26;100406.22;;;28.46;52.75
10310;BME280;5200;43.236;27.986;2023-08-12T09:04:53;100407.66;;;28.20;50.54
10310;BME280;5200;43.236;27.986;2023-08-12T09:07:23;100412.06;;;28.09;52.08
10310;BME280;5200;43.236;27.986;2023-08-12T09:09:52;100405.41;;;28.00;52.06
10310;BME280;5200;43.236;27.986;2023-08-12T09:12:19;100403.25;;;27.85;50.08
10310;BME280;5200;43.236;27.986;2023-08-12T09:14:47;100396.78;;;27.74;50.72
10310;BME280;5200;43.236;27.986;2023-08-12T09:17:14;100390.19;;;27.53;51.65
10310;BME280;5200;43.236;27.986;2023-08-12T09:19:41;100397.16;;;27.78;50.67
10310;BME280;5200;43.236;27.986;2023-08-12T09:22:09;100385.72;;;27.88;49.56
10310;BME280;5200;43.236;27.986;2023-08-12T09:24:37;100397.06;;;28.18;49.24
10310;BME280;5200;43.236;27.986;2023-08-12T09:27:04;100379.53;;;28.04;47.94
10310;BME280;5200;43.236;27.986;2023-08-12T09:33:00;100396.38;;;27.25;50.20
10310;BME280;5200;43.236;27.986;2023-08-12T09:35:33;100367.78;;;26.65;55.36
10310;BME280;5200;43.236;27.986;2023-08-12T09:38:02;100396.03;;;26.51;59.52
10310;BME280;5200;43.236;27.986;2023-08-12T09:40:31;100389.56;;;26.52;62.99
10310;BME280;5200;43.236;27.986;2023-08-12T09:42:59;100401.19;;;26.88;62.58
10310;BME280;5200;43.236;27.986;2023-08-12T09:45:26;100391.69;;;27.20;68.12
10310;BME280;5200;43.236;27.986;2023-08-12T09:47:54;100394.72;;;27.36;67.93
10310;BME280;5200;43.236;27.986;2023-08-12T09:50:21;100390.13;;;27.36;68.87
10310;BME280;5200;43.236;27.986;2023-08-12T09:52:49;100387.13;;;27.21;67.66
10310;BME280;5200;43.236;27.986;2023-08-12T09:55:17;100397.47;;;26.77;69.94
10310;BME280;5200;43.236;27.986;2023-08-12T09:57:48;100391.25;;;26.76;71.02
10310;BME280;5200;43.236;27.986;2023-08-12T10:00:18;100355.47;;;26.58;68.40
10310;BME280;5200;43.236;27.986;2023-08-12T10:02:46;100388.72;;;26.40;72.75
10310;BME280;5200;43.236;27.986;2023-08-12T10:05:19;100378.44;;;26.48;69.34
10310;BME280;5200;43.236;27.986;2023-08-12T10:07:47;100384.69;;;26.19;69.79
10310;BME280;5200;43.236;27.986;2023-08-12T10:10:15;100366.63;;;26.07;75.13
10310;BME280;5200;43.236;27.986;2023-08-12T10:12:42;100370.28;;;26.13;72.72
10310;BME280;5200;43.236;27.986;2023-08-12T10:15:11;100369.13;;;26.21;71.67
10310;BME280;5200;43.236;27.986;2023-08-12T10:17:38;100365.47;;;26.27;69.57
10310;BME280;5200;43.236;27.986;2023-08-12T10:20:08;100369.16;;;26.44;69.55
10310;BME280;5200;43.236;27.986;2023-08-12T10:22:39;100365.75;;;26.49;71.52
10310;BME280;5200;43.236;27.986;2023-08-12T10:25:08;100351.31;;;26.43;71.63
10310;BME280;5200;43.236;27.986;2023-08-12T10:27:38;100353.81;;;26.56;69.42
10310;BME280;5200;43.236;27.986;2023-08-12T10:30:08;100338.41;;;26.33;70.64
10310;BME280;5200;43.236;27.986;2023-08-12T10:32:37;100369.41;;;26.54;67.79
10310;BME280;5200;43.236;27.986;2023-08-12T10:35:05;100373.94;;;26.42;67.62
10310;BME280;5200;43.236;27.986;2023-08-12T10:37:35;100314.56;;;25.95;68.89
10310;BME280;5200;43.236;27.986;2023-08-12T10:40:03;100354.94;;;26.37;74.83
10310;BME280;5200;43.236;27.986;2023-08-12T10:42:43;100364.78;;;26.43;76.30
10310;BME280;5200;43.236;27.986;2023-08-12T10:45:11;100344.72;;;26.15;76.80
10310;BME280;5200;43.236;27.986;2023-08-12T10:47:43;100369.25;;;26.26;71.57
10310;BME280;5200;43.236;27.986;2023-08-12T10:50:18;100333.69;;;26.05;69.76
10310;BME280;5200;43.236;27.986;2023-08-12T10:52:45;100356.25;;;26.34;64.35
10310;BME280;5200;43.236;27.986;2023-08-12T10:55:20;100348.13;;;26.23;65.23
10310;BME280;5200;43.236;27.986;2023-08-12T10:57:48;100352.00;;;26.27;70.99
10310;BME280;5200;43.236;27.986;2023-08-12T11:00:16;100326.25;;;25.89;66.32
10310;BME280;5200;43.236;27.986;2023-08-12T11:02:51;100359.03;;;25.86;61.66
10310;BME280;5200;43.236;27.986;2023-08-12T11:05:19;100338.47;;;25.61;57.76
10310;BME280;5200;43.236;27.986;2023-08-12T11:07:48;100351.38;;;26.01;61.66
10310;BME280;5200;43.236;27.986;2023-08-12T11:10:16;100337.63;;;25.91;65.86
10310;BME280;5200;43.236;27.986;2023-08-12T11:12:48;100338.16;;;26.11;61.79
10310;BME280;5200;43.236;27.986;2023-08-12T11:15:15;100360.81;;;26.34;61.32
10310;BME280;5200;43.236;27.986;2023-08-12T11:17:42;100349.78;;;26.24;60.27
10310;BME280;5200;43.236;27.986;2023-08-12T11:20:13;100329.69;;;26.08;60.88
10310;BME280;5200;43.236;27.986;2023-08-12T11:22:41;100326.53;;;25.99;58.08
10310;BME280;5200;43.236;27.986;2023-08-12T11:25:11;100351.78;;;26.40;59.64
10310;BME280;5200;43.236;27.986;2023-08-12T11:27:40;100354.13;;;26.25;56.17
10310;BME280;5200;43.236;27.986;2023-08-12T11:30:09;100349.28;;;26.27;55.83
10310;BME280;5200;43.236;27.986;2023-08-12T11:32:37;100344.47;;;26.05;53.98
10310;BME280;5200;43.236;27.986;2023-08-12T11:35:06;100351.81;;;25.98;62.09
10310;BME280;5200;43.236;27.986;2023-08-12T11:37:35;100360.06;;;25.73;59.58
10310;BME280;5200;43.236;27.986;2023-08-12T11:40:04;100349.06;;;25.56;65.57
10310;BME280;5200;43.236;27.986;2023-08-12T11:42:34;100334.75;;;25.44;52.84
10310;BME280;5200;43.236;27.986;2023-08-12T11:45:02;100348.06;;;25.39;58.63
10310;BME280;5200;43.236;27.986;2023-08-12T11:47:29;100353.47;;;25.39;62.85
10310;BME280;5200;43.236;27.986;2023-08-12T11:49:56;100331.94;;;25.20;62.20
10310;BME280;5200;43.236;27.986;2023-08-12T11:52:23;100356.59;;;25.54;57.16
10310;BME280;5200;43.236;27.986;2023-08-12T11:54:52;100344.38;;;25.51;55.65
10310;BME280;5200;43.236;27.986;2023-08-12T11:57:22;100360.91;;;25.55;60.58
10310;BME280;5200;43.236;27.986;2023-08-12T11:59:49;100352.34;;;25.28;65.60
10310;BME280;5200;43.236;27.986;2023-08-12T12:02:18;100333.41;;;25.16;65.92
10310;BME280;5200;43.236;27.986;2023-08-12T12:04:45;100354.75;;;25.18;67.31
10310;BME280;5200;43.236;27.986;2023-08-12T12:07:19;100349.16;;;25.19;68.88
10310;BME280;5200;43.236;27.986;2023-08-12T12:09:46;100313.75;;;24.97;68.63
10310;BME280;5200;43.236;27.986;2023-08-12T12:12:15;100339.94;;;25.27;68.53
10310;BME280;5200;43.236;27.986;2023-08-12T12:14:46;100337.75;;;25.17;64.29
10310;BME280;5200;43.236;27.986;2023-08-12T12:17:14;100359.25;;;25.24;69.67
10310;BME280;5200;43.236;27.986;2023-08-12T12:19:41;100345.00;;;24.98;72.84
10310;BME280;5200;43.236;27.986;2023-08-12T12:22:08;100355.25;;;25.08;71.81
10310;BME280;5200;43.236;27.986;2023-08-12T12:24:44;100330.41;;;24.87;71.44
10310;BME280;5200;43.236;27.986;2023-08-12T12:27:12;100352.28;;;24.98;66.06
10310;BME280;5200;43.236;27.986;2023-08-12T12:29:40;100351.94;;;24.87;76.87
10310;BME280;5200;43.236;27.986;2023-08-12T12:32:07;100318.97;;;24.74;74.30
10310;BME280;5200;43.236;27.986;2023-08-12T12:34:34;100371.41;;;24.89;77.61
10310;BME280;5200;43.236;27.986;2023-08-12T12:37:01;100364.34;;;24.70;77.88
10310;BME280;5200;43.236;27.986;2023-08-12T12:39:28;100351.66;;;24.77;77.04
10310;BME280;5200;43.236;27.986;2023-08-12T12:41:56;100357.50;;;24.74;77.87
10310;BME280;5200;43.236;27.986;2023-08-12T12:44:28;100358.88;;;24.58;78.19
10310;BME280;5200;43.236;27.986;2023-08-12T12:46:57;100340.03;;;24.33;81.39
10310;BME280;5200;43.236;27.986;2023-08-12T12:49:24;100330.63;;;24.42;81.64
10310;BME280;5200;43.236;27.986;2023-08-12T12:51:50;100343.84;;;24.51;84.21
10310;BME280;5200;43.236;27.986;2023-08-12T12:54:17;100327.59;;;24.39;83.00
10310;BME280;5200;43.236;27.986;2023-08-12T12:56:45;100345.41;;;24.33;84.82